sensor_id;sensor_type;location;lat;lon;timestamp;pressure;altitude;pressure_sealevel;temperature;humidity
9774;BME280;4926;42.670;23.316;2023-04-05T00:00:04;94063.13;;;0.72;100.00
9774;BME280;4926;42.670;23.316;2023-04-05T00:02:34;94055.66;;;0.64;100.00
9774;BME280;4926;42.670;23.316;2023-04-05T00:05:01;94051.28;;;0.53;100.00
9774;BME280;4926;42.670;23.316;2023-04-05T00:07:30;94059.94;;;0.70;100.00
9774;BME280;4926;42.670;23.316;2023-04-05T00:09:58;94028.22;;;0.50;100.00
9774;BME280;4926;42.670;23.316;2023-04-05T00:12:26;94060.34;;;0.62;100.00
9774;BME280;4926;42.670;23.316;2023-04-05T00:14:53;94065.09;;;0.65;100.00
9774;BME280;4926;42.670;23.316;2023-04-05T00:17:23;94060.41;;;0.67;100.00
9774;BME280;4926;42.670;23.316;2023-04-05T00:19:50;94054.88;;;0.64;100.00
9774;BME280;4926;42.670;23.316;2023-04-05T00:22:23;94049.94;;;0.67;100.00
9774;BME280;4926;42.670;23.316;2023-04-05T00:24:51;94047.81;;;0.64;100.00
9774;BME280;4926;42.670;23.316;2023-04-05T00:27:20;94055.03;;;0.90;100.00
9774;BME280;4926;42.670;23.316;2023-04-05T00:29:48;94041.47;;;0.77;100.00
9774;BME280;4926;42.670;23.316;2023-04-05T00:32:15;94065.19;;;0.87;100.00
9774;BME280;4926;42.670;23.316;2023-04-05T00:34:41;94058.03;;;0.82;100.00
9774;BME280;4926;42.670;23.316;2023-04-05T00:37:08;94060.31;;;0.79;100.00
9774;BME280;4926;42.670;23.316;2023-04-05T00:39:35;94060.81;;;0.76;100.00
9774;BME280;4926;42.670;23.316;2023-04-05T00:42:04;94072.97;;;0.82;100.00
9774;BME280;4926;42.670;23.316;2023-04-05T00:44:31;94059.06;;;0.81;100.00
9774;BME280;4926;42.670;23.316;2023-04-05T00:47:00;94069.16;;;0.73;100.00
9774;BME280;4926;42.670;23.316;2023-04-05T00:49:28;94060.19;;;0.85;100.00
9774;BME280;4926;42.670;23.316;2023-04-05T00:51:55;94072.88;;;0.93;100.00
9774;BME280;4926;42.670;23.316;2023-04-05T00:54:23;94048.09;;;0.84;100.00
9774;BME280;4926;42.670;23.316;2023-04-05T00:56:54;94067.00;;;0.86;100.00
9774;BME280;4926;42.670;23.316;2023-04-05T00:59:21;94072.25;;;0.86;100.00
9774;BME280;4926;42.670;23.316;2023-04-05T01:01:49;94055.19;;;0.67;100.00
9774;BME280;4926;42.670;23.316;2023-04-05T01:04:24;94075.34;;;0.83;100.00
9774;BME280;4926;42.670;23.316;2023-04-05T01:06:59;94061.38;;;0.78;100.00
9774;BME280;4926;42.670;23.316;2023-04-05T01:09:39;94070.09;;;0.83;100.00
9774;BME280;4926;42.670;23.316;2023-04-05T01:12:08;94084.41;;;0.92;100.00
9774;BME280;4926;42.670;23.316;2023-04-05T01:14:45;94086.94;;;0.87;100.00
9774;BME280;4926;42.670;23.316;2023-04-05T01:17:12;94085.97;;;0.93;100.00
9774;BME280;4926;42.670;23.316;2023-04-05T01:19:42;94084.00;;;0.84;100.00
9774;BME280;4926;42.670;23.316;2023-04-05T01:25:42;94081.78;;;0.76;100.00
9774;BME280;4926;42.670;23.316;2023-04-05T01:28:34;94078.22;;;0.82;100.00
9774;BME280;4926;42.670;23.316;2023-04-05T01:31:12;94081.22;;;0.90;100.00
9774;BME280;4926;42.670;23.316;2023-04-05T01:33:48;94082.25;;;0.89;100.00
9774;BME280;4926;42.670;23.316;2023-04-05T01:36:25;94067.72;;;0.82;100.00
9774;BME280;4926;42.670;23.316;2023-04-05T01:38:57;94091.94;;;0.89;100.00
9774;BME280;4926;42.670;23.316;2023-04-05T01:41:25;94088.03;;;0.91;100.00
9774;BME280;4926;42.670;23.316;2023-04-05T01:43:52;94070.59;;;0.80;100.00
9774;BME280;4926;42.670;23.316;2023-04-05T01:46:20;94045.28;;;0.69;100.00
9774;BME280;4926;42.670;23.316;2023-04-05T01:48:46;94077.56;;;0.91;100.00
9774;BME280;4926;42.670;23.316;2023-04-05T01:51:13;94079.16;;;0.92;100.00
9774;BME280;4926;42.670;23.316;2023-04-05T01:53:40;94068.25;;;1.00;100.00
9774;BME280;4926;42.670;23.316;2023-04-05T01:56:09;94058.66;;;0.89;100.00
9774;BME280;4926;42.670;23.316;2023-04-05T01:58:36;94077.72;;;1.01;100.00
9774;BME280;4926;42.670;23.316;2023-04-05T02:01:03;94082.47;;;1.04;100.00
9774;BME280;4926;42.670;23.316;2023-04-05T02:03:34;94080.88;;;1.03;100.00
9774;BME280;4926;42.670;23.316;2023-04-05T02:06:01;94077.41;;;0.98;100.00
9774;BME280;4926;42.670;23.316;2023-04-05T02:08:27;94085.66;;;1.06;100.00
9774;BME280;4926;42.670;23.316;2023-04-05T02:10:57;94081.44;;;1.05;100.00
9774;BME280;4926;42.670;23.316;2023-04-05T02:13:23;94079.94;;;1.09;100.00
9774;BME280;4926;42.670;23.316;2023-04-05T02:15:51;94081.69;;;1.21;100.00
9774;BME280;4926;42.670;23.316;2023-04-05T02:18:18;94079.06;;;1.21;100.00
9774;BME280;4926;42.670;23.316;2023-04-05T02:20:48;94082.88;;;1.13;100.00
9774;BME280;4926;42.670;23.316;2023-04-05T02:23:16;94082.00;;;1.07;100.00
9774;BME280;4926;42.670;23.316;2023-04-05T02:25:43;94085.59;;;1.01;100.00
9774;BME280;4926;42.670;23.316;2023-04-05T02:28:10;94082.47;;;1.04;100.00
9774;BME280;4926;42.670;23.316;2023-04-05T02:30:37;94078.81;;;1.05;100.00
9774;BME280;4926;42.670;23.316;2023-04-05T02:33:03;94083.88;;;1.12;100.00
9774;BME280;4926;42.670;23.316;2023-04-05T02:35:30;94079.38;;;1.07;100.00
9774;BME280;4926;42.670;23.316;2023-04-05T02:37:58;94080.81;;;1.15;100.00
9774;BME280;4926;42.670;23.316;2023-04-05T02:40:26;94083.13;;;1.11;100.00
9774;BME280;4926;42.670;23.316;2023-04-05T02:42:53;94078.31;;;1.08;100.00
9774;BME280;4926;42.670;23.316;2023-04-05T02:45:19;94079.50;;;1.17;100.00
9774;BME280;4926;42.670;23.316;2023-04-05T02:47:49;94075.63;;;1.03;100.00
9774;BME280;4926;42.670;23.316;2023-04-05T02:50:15;94079.13;;;1.09;100.00
9774;BME280;4926;42.670;23.316;2023-04-05T02:52:44;94083.34;;;1.10;100.00
9774;BME280;4926;42.670;23.316;2023-04-05T02:55:13;94077.09;;;0.94;100.00
9774;BME280;4926;42.670;23.316;2023-04-05T02:57:42;94079.78;;;0.99;100.00
9774;BME280;4926;42.670;23.316;2023-04-05T03:00:10;94060.88;;;0.81;100.00
9774;BME280;4926;42.670;23.316;2023-04-05T03:02:37;94072.00;;;1.04;100.00
9774;BME280;4926;42.670;23.316;2023-04-05T03:05:08;94072.50;;;1.01;100.00
9774;BME280;4926;42.670;23.316;2023-04-05T03:07:35;94088.75;;;1.03;100.00
9774;BME280;4926;42.670;23.316;2023-04-05T03:10:06;94073.25;;;1.02;100.00
9774;BME280;4926;42.670;23.316;2023-04-05T03:12:35;94057.56;;;0.85;100.00
9774;BME280;4926;42.670;23.316;2023-04-05T03:15:01;94079.78;;;0.99;100.00
9774;BME280;4926;42.670;23.316;2023-04-05T03:17:31;94073.56;;;1.05;100.00
9774;BME280;4926;42.670;23.316;2023-04-05T03:19:58;94080.34;;;1.01;100.00
9774;BME280;4926;42.670;23.316;2023-04-05T03:22:25;94083.59;;;0.92;100.00
9774;BME280;4926;42.670;23.316;2023-04-05T03:24:51;94086.13;;;1.03;100.00
9774;BME280;4926;42.670;23.316;2023-04-05T03:27:18;94084.06;;;1.05;100.00
9774;BME280;4926;42.670;23.316;2023-04-05T03:29:49;94041.38;;;0.72;100.00
9774;BME280;4926;42.670;23.316;2023-04-05T03:32:16;94026.94;;;0.69;100.00
9774;BME280;4926;42.670;23.316;2023-04-05T03:34:44;94069.78;;;0.96;100.00
9774;BME280;4926;42.670;23.316;2023-04-05T03:37:13;94080.81;;;0.98;100.00
9774;BME280;4926;42.670;23.316;2023-04-05T03:39:40;94087.72;;;1.04;100.00
9774;BME280;4926;42.670;23.316;2023-04-05T03:42:07;94081.69;;;1.04;100.00
9774;BME280;4926;42.670;23.316;2023-04-05T03:44:36;94086.13;;;1.03;100.00
9774;BME280;4926;42.670;23.316;2023-04-05T03:47:05;94084.53;;;1.02;100.00
9774;BME280;4926;42.670;23.316;2023-04-05T03:52:13;94084.13;;;1.10;100.00
9774;BME280;4926;42.670;23.316;2023-04-05T03:54:40;94099.91;;;1.15;100.00
9774;BME280;4926;42.670;23.316;2023-04-05T03:57:07;94093.09;;;1.14;100.00
9774;BME280;4926;42.670;23.316;2023-04-05T03:59:34;94095.31;;;1.23;100.00
9774;BME280;4926;42.670;23.316;2023-04-05T04:02:05;94096.69;;;1.08;100.00
9774;BME280;4926;42.670;23.316;2023-04-05T04:04:32;94101.84;;;1.03;100.00
9774;BME280;4926;42.670;23.316;2023-04-05T04:06:58;94103.28;;;0.94;100.00
9774;BME280;4926;42.670;23.316;2023-04-05T04:09:34;94097.88;;;1.01;100.00
9774;BME280;4926;42.670;23.316;2023-04-05T04:12:01;94099.06;;;0.93;100.00
9774;BME280;4926;42.670;23.316;2023-04-05T04:14:28;94101.00;;;0.98;100.00
9774;BME280;4926;42.670;23.316;2023-04-05T04:17:00;94111.22;;;0.99;100.00
9774;BME280;4926;42.670;23.316;2023-04-05T04:19:29;94097.88;;;0.84;100.00
9774;BME280;4926;42.670;23.316;2023-04-05T04:21:57;94108.53;;;0.94;100.00
9774;BME280;4926;42.670;23.316;2023-04-05T04:24:24;94109.19;;;1.01;100.00
9774;BME280;4926;42.670;23.316;2023-04-05T04:26:51;94100.03;;;1.04;100.00
9774;BME280;4926;42.670;23.316;2023-04-05T04:29:19;94105.50;;;1.02;100.00
9774;BME280;4926;42.670;23.316;2023-04-05T04:31:53;94112.97;;;1.10;100.00
9774;BME280;4926;42.670;23.316;2023-04-05T04:34:20;94113.59;;;1.17;100.00
9774;BME280;4926;42.670;23.316;2023-04-05T04:36:51;94113.50;;;1.12;100.00
9774;BME280;4926;42.670;23.316;2023-04-05T04:39:28;94102.00;;;1.13;100.00
9774;BME280;4926;42.670;23.316;2023-04-05T04:41:56;94114.06;;;1.14;100.00
9774;BME280;4926;42.670;23.316;2023-04-05T04:44:23;94122.50;;;1.17;100.00
9774;BME280;4926;42.670;23.316;2023-04-05T04:46:55;94106.28;;;1.20;100.00
9774;BME280;4926;42.670;23.316;2023-04-05T04:49:22;94115.19;;;1.19;100.00
9774;BME280;4926;42.670;23.316;2023-04-05T04:51:49;94125.91;;;1.17;100.00
9774;BME280;4926;42.670;23.316;2023-04-05T04:54:17;94114.22;;;1.25;100.00
9774;BME280;4926;42.670;23.316;2023-04-05T04:56:46;94119.00;;;1.28;100.00
9774;BME280;4926;42.670;23.316;2023-04-05T04:59:13;94123.75;;;1.31;100.00
9774;BME280;4926;42.670;23.316;2023-04-05T05:01:40;94114.22;;;1.25;100.00
9774;BME280;4926;42.670;23.316;2023-04-05T05:04:07;94125.81;;;1.12;100.00
9774;BME280;4926;42.670;23.316;2023-04-05T05:06:33;94114.06;;;1.14;100.00
9774;BME280;4926;42.670;23.316;2023-04-05T05:09:00;94121.38;;;1.12;100.00
9774;BME280;4926;42.670;23.316;2023-04-05T05:11:28;94118.59;;;1.02;100.00
9774;BME280;4926;42.670;23.316;2023-04-05T05:13:57;94125.03;;;1.11;100.00
9774;BME280;4926;42.670;23.316;2023-04-05T05:16:24;94132.41;;;1.14;100.00
9774;BME280;4926;42.670;23.316;2023-04-05T05:18:52;94131.72;;;1.02;100.00
9774;BME280;4926;42.670;23.316;2023-04-05T05:21:22;94123.78;;;0.97;100.00
9774;BME280;4926;42.670;23.316;2023-04-05T05:23:48;94129.34;;;1.01;100.00
9774;BME280;4926;42.670;23.316;2023-04-05T05:26:16;94140.44;;;1.08;100.00
9774;BME280;4926;42.670;23.316;2023-04-05T05:28:44;94132.09;;;1.11;100.00
9774;BME280;4926;42.670;23.316;2023-04-05T05:31:17;94136.09;;;1.13;100.00
9774;BME280;4926;42.670;23.316;2023-04-05T05:33:44;94134.63;;;1.23;100.00
9774;BME280;4926;42.670;23.316;2023-04-05T05:36:14;94137.88;;;1.30;100.00
9774;BME280;4926;42.670;23.316;2023-04-05T05:38:42;94135.34;;;1.35;100.00
9774;BME280;4926;42.670;23.316;2023-04-05T05:41:09;94130.34;;;1.33;100.00
9774;BME280;4926;42.670;23.316;2023-04-05T05:43:36;94133.38;;;1.42;100.00
9774;BME280;4926;42.670;23.316;2023-04-05T05:46:05;94128.19;;;1.47;100.00
9774;BME280;4926;42.670;23.316;2023-04-05T05:48:32;94121.97;;;1.53;100.00
9774;BME280;4926;42.670;23.316;2023-04-05T05:50:59;94123.69;;;1.64;100.00
9774;BME280;4926;42.670;23.316;2023-04-05T05:53:33;94107.47;;;1.67;100.00
9774;BME280;4926;42.670;23.316;2023-04-05T05:56:00;94111.06;;;1.82;100.00
9774;BME280;4926;42.670;23.316;2023-04-05T05:58:27;94117.19;;;1.88;100.00
9774;BME280;4926;42.670;23.316;2023-04-05T06:00:54;94118.34;;;1.97;100.00
9774;BME280;4926;42.670;23.316;2023-04-05T06:03:23;94101.56;;;1.76;100.00
9774;BME280;4926;42.670;23.316;2023-04-05T06:05:50;94115.66;;;1.92;100.00
9774;BME280;4926;42.670;23.316;2023-04-05T06:08:17;94108.19;;;1.84;100.00
9774;BME280;4926;42.670;23.316;2023-04-05T06:10:44;94128.22;;;1.90;100.00
9774;BME280;4926;42.670;23.316;2023-04-05T06:13:13;94122.53;;;1.98;100.00
9774;BME280;4926;42.670;23.316;2023-04-05T06:15:41;94130.66;;;2.18;100.00
9774;BME280;4926;42.670;23.316;2023-04-05T06:18:10;94135.44;;;2.21;100.00
9774;BME280;4926;42.670;23.316;2023-04-05T06:20:41;94138.50;;;2.13;100.00
9774;BME280;4926;42.670;23.316;2023-04-05T06:23:10;94151.13;;;2.16;100.00
9774;BME280;4926;42.670;23.316;2023-04-05T06:25:36;94138.00;;;2.16;100.00
9774;BME280;4926;42.670;23.316;2023-04-05T06:28:04;94151.78;;;2.28;100.00
9774;BME280;4926;42.670;23.316;2023-04-05T06:30:32;94132.38;;;2.29;100.00
9774;BME280;4926;42.670;23.316;2023-04-05T06:33:02;94148.13;;;2.29;100.00
9774;BME280;4926;42.670;23.316;2023-04-05T06:35:28;94142.00;;;2.45;100.00
9774;BME280;4926;42.670;23.316;2023-04-05T06:37:58;94142.66;;;2.57;100.00
9774;BME280;4926;42.670;23.316;2023-04-05T06:40:25;94150.22;;;2.80;100.00
9774;BME280;4926;42.670;23.316;2023-04-05T06:42:51;94153.00;;;2.95;100.00
9774;BME280;4926;42.670;23.316;2023-04-05T06:45:18;94155.69;;;3.00;99.81
9774;BME280;4926;42.670;23.316;2023-04-05T06:47:45;94158.94;;;3.12;96.50
9774;BME280;4926;42.670;23.316;2023-04-05T06:50:12;94164.72;;;3.09;95.19
9774;BME280;4926;42.670;23.316;2023-04-05T06:52:39;94150.44;;;3.00;92.24
9774;BME280;4926;42.670;23.316;2023-04-05T06:55:07;94166.28;;;3.10;93.05
9774;BME280;4926;42.670;23.316;2023-04-05T06:57:34;94172.59;;;3.09;91.55
9774;BME280;4926;42.670;23.316;2023-04-05T07:00:01;94181.06;;;3.16;92.50
9774;BME280;4926;42.670;23.316;2023-04-05T07:02:33;94175.09;;;3.26;91.30
9774;BME280;4926;42.670;23.316;2023-04-05T07:05:01;94174.28;;;3.25;90.53
9774;BME280;4926;42.670;23.316;2023-04-05T07:07:33;94165.00;;;3.13;89.77
9774;BME280;4926;42.670;23.316;2023-04-05T07:10:00;94187.91;;;3.17;90.80
9774;BME280;4926;42.670;23.316;2023-04-05T07:12:28;94188.41;;;3.14;92.71
9774;BME280;4926;42.670;23.316;2023-04-05T07:14:55;94192.38;;;3.17;92.09
9774;BME280;4926;42.670;23.316;2023-04-05T07:17:22;94180.97;;;3.06;90.44
9774;BME280;4926;42.670;23.316;2023-04-05T07:19:48;94183.38;;;3.08;89.99
9774;BME280;4926;42.670;23.316;2023-04-05T07:22:15;94197.28;;;3.08;89.69
9774;BME280;4926;42.670;23.316;2023-04-05T07:24:43;94195.38;;;2.99;90.87
9774;BME280;4926;42.670;23.316;2023-04-05T07:27:11;94202.34;;;3.15;92.37
9774;BME280;4926;42.670;23.316;2023-04-05T07:29:40;94196.38;;;3.24;89.70
9774;BME280;4926;42.670;23.316;2023-04-05T07:32:08;94196.94;;;3.26;89.10
9774;BME280;4926;42.670;23.316;2023-04-05T07:34:35;94195.63;;;3.29;90.53
9774;BME280;4926;42.670;23.316;2023-04-05T07:37:04;94196.44;;;3.29;91.50
9774;BME280;4926;42.670;23.316;2023-04-05T07:39:31;94204.38;;;3.39;91.94
9774;BME280;4926;42.670;23.316;2023-04-05T07:41:58;94200.09;;;3.28;88.37
9774;BME280;4926;42.670;23.316;2023-04-05T07:44:26;94204.22;;;3.19;86.75
9774;BME280;4926;42.670;23.316;2023-04-05T07:46:54;94201.53;;;3.09;86.52
9774;BME280;4926;42.670;23.316;2023-04-05T07:49:24;94207.88;;;2.87;87.80
9774;BME280;4926;42.670;23.316;2023-04-05T07:51:53;94223.75;;;2.97;89.13
9774;BME280;4926;42.670;23.316;2023-04-05T07:54:20;94215.81;;;2.92;88.25
9774;BME280;4926;42.670;23.316;2023-04-05T07:56:47;94220.84;;;2.98;88.10
9774;BME280;4926;42.670;23.316;2023-04-05T07:59:14;94211.13;;;2.72;88.22
9774;BME280;4926;42.670;23.316;2023-04-05T08:01:41;94224.13;;;2.84;89.81
9774;BME280;4926;42.670;23.316;2023-04-05T08:04:11;94225.78;;;2.90;88.82
9774;BME280;4926;42.670;23.316;2023-04-05T08:06:37;94222.63;;;2.93;87.29
9774;BME280;4926;42.670;23.316;2023-04-05T08:09:06;94228.78;;;3.03;86.70
9774;BME280;4926;42.670;23.316;2023-04-05T08:11:33;94231.03;;;2.90;85.33
9774;BME280;4926;42.670;23.316;2023-04-05T08:14:00;94229.88;;;2.81;86.70
9774;BME280;4926;42.670;23.316;2023-04-05T08:16:35;94236.22;;;2.85;87.36
9774;BME280;4926;42.670;23.316;2023-04-05T08:19:01;94235.22;;;2.91;87.51
9774;BME280;4926;42.670;23.316;2023-04-05T08:21:29;94240.78;;;2.94;87.43
9774;BME280;4926;42.670;23.316;2023-04-05T08:23:56;94235.34;;;3.01;87.34
9774;BME280;4926;42.670;23.316;2023-04-05T08:26:24;94246.66;;;3.01;87.58
9774;BME280;4926;42.670;23.316;2023-04-05T08:28:51;94250.31;;;3.00;88.29
9774;BME280;4926;42.670;23.316;2023-04-05T08:31:18;94247.16;;;2.98;88.85
9774;BME280;4926;42.670;23.316;2023-04-05T08:33:45;94246.09;;;2.99;90.01
9774;BME280;4926;42.670;23.316;2023-04-05T08:36:11;94250.38;;;3.05;88.52
9774;BME280;4926;42.670;23.316;2023-04-05T08:38:39;94245.66;;;3.07;88.04
9774;BME280;4926;42.670;23.316;2023-04-05T08:41:13;94256.78;;;3.14;88.09
9774;BME280;4926;42.670;23.316;2023-04-05T08:43:54;94255.69;;;3.10;88.35
9774;BME280;4926;42.670;23.316;2023-04-05T08:46:22;94252.00;;;3.11;88.80
9774;BME280;4926;42.670;23.316;2023-04-05T08:48:49;94258.81;;;3.07;90.18
9774;BME280;4926;42.670;23.316;2023-04-05T08:51:19;94254.09;;;3.09;89.90
9774;BME280;4926;42.670;23.316;2023-04-05T08:53:48;94266.13;;;3.27;90.80
9774;BME280;4926;42.670;23.316;2023-04-05T08:56:19;94262.81;;;3.41;90.98
9774;BME280;4926;42.670;23.316;2023-04-05T08:58:51;94263.91;;;3.46;91.97
9774;BME280;4926;42.670;23.316;2023-04-05T09:01:19;94262.63;;;3.48;91.59
9774;BME280;4926;42.670;23.316;2023-04-05T09:03:48;94266.66;;;3.61;92.11
9774;BME280;4926;42.670;23.316;2023-04-05T09:06:18;94271.81;;;3.77;90.88
9774;BME280;4926;42.670;23.316;2023-04-05T09:08:45;94275.09;;;3.63;88.89
9774;BME280;4926;42.670;23.316;2023-04-05T09:11:14;94266.19;;;3.37;87.20
9774;BME280;4926;42.670;23.316;2023-04-05T09:13:42;94270.66;;;3.36;88.04
9774;BME280;4926;42.670;23.316;2023-04-05T09:16:08;94281.72;;;3.38;89.63
9774;BME280;4926;42.670;23.316;2023-04-05T09:18:35;94281.47;;;3.40;90.03
9774;BME280;4926;42.670;23.316;2023-04-05T09:21:02;94282.78;;;3.37;90.58
9774;BME280;4926;42.670;23.316;2023-04-05T09:23:30;94281.13;;;3.31;91.89
9774;BME280;4926;42.670;23.316;2023-04-05T09:25:56;94278.13;;;3.45;91.74
9774;BME280;4926;42.670;23.316;2023-04-05T09:28:39;94281.84;;;3.54;90.41
9774;BME280;4926;42.670;23.316;2023-04-05T09:31:05;94275.53;;;3.50;88.92
9774;BME280;4926;42.670;23.316;2023-04-05T09:33:33;94271.66;;;3.30;89.11
9774;BME280;4926;42.670;23.316;2023-04-05T09:36:00;94269.34;;;3.34;91.08
9774;BME280;4926;42.670;23.316;2023-04-05T09:38:41;94273.63;;;3.45;90.44
9774;BME280;4926;42.670;23.316;2023-04-05T09:41:08;94274.03;;;3.59;89.59
9774;BME280;4926;42.670;23.316;2023-04-05T09:43:37;94261.06;;;3.84;88.58
9774;BME280;4926;42.670;23.316;2023-04-05T09:46:28;94259.56;;;3.93;87.13
9774;BME280;4926;42.670;23.316;2023-04-05T09:48:58;94258.50;;;3.94;86.85
9774;BME280;4926;42.670;23.316;2023-04-05T09:51:32;94259.09;;;3.69;85.62
9774;BME280;4926;42.670;23.316;2023-04-05T09:54:00;94262.47;;;3.60;86.70
9774;BME280;4926;42.670;23.316;2023-04-05T09:56:28;94258.69;;;3.51;87.48
9774;BME280;4926;42.670;23.316;2023-04-05T09:59:00;94260.81;;;3.54;87.14
9774;BME280;4926;42.670;23.316;2023-04-05T10:01:29;94270.34;;;3.60;86.89
9774;BME280;4926;42.670;23.316;2023-04-05T10:03:57;94257.75;;;3.62;84.86
9774;BME280;4926;42.670;23.316;2023-04-05T10:06:34;94255.16;;;3.67;83.71
9774;BME280;4926;42.670;23.316;2023-04-05T10:09:02;94261.44;;;3.66;83.72
9774;BME280;4926;42.670;23.316;2023-04-05T10:11:32;94262.34;;;3.45;83.79
9774;BME280;4926;42.670;23.316;2023-04-05T10:14:07;94257.25;;;3.38;83.93
9774;BME280;4926;42.670;23.316;2023-04-05T10:16:36;94257.75;;;3.62;83.80
9774;BME280;4926;42.670;23.316;2023-04-05T10:19:07;94256.81;;;3.78;80.93
9774;BME280;4926;42.670;23.316;2023-04-05T10:21:39;94262.84;;;3.78;79.27
9774;BME280;4926;42.670;23.316;2023-04-05T10:24:19;94246.69;;;3.65;78.71
9774;BME280;4926;42.670;23.316;2023-04-05T10:26:54;94256.16;;;3.66;79.04
9774;BME280;4926;42.670;23.316;2023-04-05T10:29:37;94258.66;;;3.46;79.68
9774;BME280;4926;42.670;23.316;2023-04-05T10:32:10;94258.91;;;3.76;79.31
9774;BME280;4926;42.670;23.316;2023-04-05T10:34:50;94253.69;;;3.49;78.02
9774;BME280;4926;42.670;23.316;2023-04-05T10:37:26;94256.06;;;3.51;78.71
9774;BME280;4926;42.670;23.316;2023-04-05T10:39:59;94240.16;;;3.67;78.40
9774;BME280;4926;42.670;23.316;2023-04-05T10:42:40;94248.84;;;3.73;78.70
9774;BME280;4926;42.670;23.316;2023-04-05T10:45:11;94247.34;;;3.82;77.88
9774;BME280;4926;42.670;23.316;2023-04-05T10:47:42;94270.56;;;3.85;77.65
9774;BME280;4926;42.670;23.316;2023-04-05T10:50:12;94257.81;;;3.72;77.03
9774;BME280;4926;42.670;23.316;2023-04-05T10:52:41;94255.19;;;3.72;77.64
9774;BME280;4926;42.670;23.316;2023-04-05T10:55:09;94258.69;;;3.82;78.40
9774;BME280;4926;42.670;23.316;2023-04-05T10:57:36;94259.03;;;3.96;78.25
9774;BME280;4926;42.670;23.316;2023-04-05T11:00:04;94272.09;;;3.81;75.72
9774;BME280;4926;42.670;23.316;2023-04-05T11:02:32;94261.41;;;3.61;77.43
9774;BME280;4926;42.670;23.316;2023-04-05T11:05:02;94267.84;;;3.75;77.07
9774;BME280;4926;42.670;23.316;2023-04-05T11:07:41;94264.34;;;3.69;77.98
9774;BME280;4926;42.670;23.316;2023-04-05T11:10:14;94272.50;;;3.68;78.05
9774;BME280;4926;42.670;23.316;2023-04-05T11:13:03;94282.38;;;3.51;79.27
9774;BME280;4926;42.670;23.316;2023-04-05T11:15:33;94276.59;;;3.54;78.25
9774;BME280;4926;42.670;23.316;2023-04-05T11:21:06;94284.75;;;3.52;78.40
9774;BME280;4926;42.670;23.316;2023-04-05T11:24:03;94276.47;;;3.38;78.98
9774;BME280;4926;42.670;23.316;2023-04-05T11:26:52;94274.25;;;3.57;78.46
9774;BME280;4926;42.670;23.316;2023-04-05T11:29:44;94271.13;;;3.55;77.58
9774;BME280;4926;42.670;23.316;2023-04-05T11:32:12;94265.16;;;3.70;78.04
9774;BME280;4926;42.670;23.316;2023-04-05T11:34:56;94280.00;;;3.81;77.50
9774;BME280;4926;42.670;23.316;2023-04-05T11:38:04;94282.97;;;3.58;79.21
9774;BME280;4926;42.670;23.316;2023-04-05T11:40:34;94269.09;;;3.67;78.90
9774;BME280;4926;42.670;23.316;2023-04-05T11:43:02;94257.31;;;3.75;77.41
9774;BME280;4926;42.670;23.316;2023-04-05T11:45:30;94267.53;;;4.08;76.96
9774;BME280;4926;42.670;23.316;2023-04-05T11:47:58;94259.97;;;4.16;75.31
9774;BME280;4926;42.670;23.316;2023-04-05T11:50:27;94260.75;;;4.17;75.19
9774;BME280;4926;42.670;23.316;2023-04-05T11:53:11;94266.97;;;4.01;74.49
9774;BME280;4926;42.670;23.316;2023-04-05T11:55:39;94248.03;;;3.99;74.22
9774;BME280;4926;42.670;23.316;2023-04-05T11:58:13;94262.53;;;4.06;75.78
9774;BME280;4926;42.670;23.316;2023-04-05T12:00:40;94247.31;;;4.13;75.33
9774;BME280;4926;42.670;23.316;2023-04-05T12:03:10;94258.09;;;4.12;75.61
9774;BME280;4926;42.670;23.316;2023-04-05T12:05:48;94259.22;;;4.21;75.52
9774;BME280;4926;42.670;23.316;2023-04-05T12:08:17;94250.84;;;4.34;75.78
9774;BME280;4926;42.670;23.316;2023-04-05T12:10:44;94252.53;;;4.55;75.44
9774;BME280;4926;42.670;23.316;2023-04-05T12:13:25;94265.94;;;4.43;75.85
9774;BME280;4926;42.670;23.316;2023-04-05T12:15:51;94262.19;;;4.34;76.50
9774;BME280;4926;42.670;23.316;2023-04-05T12:18:18;94263.03;;;4.45;76.37
9774;BME280;4926;42.670;23.316;2023-04-05T12:20:48;94261.22;;;5.22;74.17
9774;BME280;4926;42.670;23.316;2023-04-05T12:23:16;94249.16;;;5.97;72.50
9774;BME280;4926;42.670;23.316;2023-04-05T12:25:47;94215.88;;;6.16;68.06
9774;BME280;4926;42.670;23.316;2023-04-05T12:28:14;94235.94;;;5.82;70.79
9774;BME280;4926;42.670;23.316;2023-04-05T12:30:48;94242.28;;;5.60;70.90
9774;BME280;4926;42.670;23.316;2023-04-05T12:33:15;94243.78;;;5.16;72.25
9774;BME280;4926;42.670;23.316;2023-04-05T12:35:42;94255.38;;;5.05;73.39
9774;BME280;4926;42.670;23.316;2023-04-05T12:38:13;94258.16;;;4.69;74.22
9774;BME280;4926;42.670;23.316;2023-04-05T12:40:43;94269.44;;;4.59;74.88
9774;BME280;4926;42.670;23.316;2023-04-05T12:43:13;94267.16;;;4.31;76.98
9774;BME280;4926;42.670;23.316;2023-04-05T12:45:44;94253.41;;;4.19;76.99
9774;BME280;4926;42.670;23.316;2023-04-05T12:48:12;94257.59;;;4.15;77.19
9774;BME280;4926;42.670;23.316;2023-04-05T12:50:43;94269.22;;;4.19;77.19
9774;BME280;4926;42.670;23.316;2023-04-05T12:53:15;94270.22;;;4.13;78.24
9774;BME280;4926;42.670;23.316;2023-04-05T12:55:49;94271.53;;;4.10;77.52
9774;BME280;4926;42.670;23.316;2023-04-05T12:58:16;94278.38;;;4.11;77.99
9774;BME280;4926;42.670;23.316;2023-04-05T13:00:43;94266.50;;;4.09;77.19
9774;BME280;4926;42.670;23.316;2023-04-05T13:03:14;94273.47;;;4.25;76.49
9774;BME280;4926;42.670;23.316;2023-04-05T13:05:45;94282.34;;;4.14;76.13
9774;BME280;4926;42.670;23.316;2023-04-05T13:08:12;94278.19;;;3.86;75.70
9774;BME280;4926;42.670;23.316;2023-04-05T13:10:40;94275.94;;;4.00;74.64
9774;BME280;4926;42.670;23.316;2023-04-05T13:13:08;94283.22;;;3.88;75.06
9774;BME280;4926;42.670;23.316;2023-04-05T13:15:34;94274.16;;;3.74;75.62
9774;BME280;4926;42.670;23.316;2023-04-05T13:18:01;94284.16;;;3.77;75.73
9774;BME280;4926;42.670;23.316;2023-04-05T13:20:28;94277.06;;;3.77;75.71
9774;BME280;4926;42.670;23.316;2023-04-05T13:22:54;94279.84;;;3.66;75.84
9774;BME280;4926;42.670;23.316;2023-04-05T13:25:30;94284.63;;;3.69;76.61
9774;BME280;4926;42.670;23.316;2023-04-05T13:27:57;94279.09;;;3.65;76.32
9774;BME280;4926;42.670;23.316;2023-04-05T13:30:28;94286.09;;;3.55;76.24
9774;BME280;4926;42.670;23.316;2023-04-05T13:32:56;94283.69;;;3.48;77.13
9774;BME280;4926;42.670;23.316;2023-04-05T13:35:31;94280.78;;;3.50;76.79
9774;BME280;4926;42.670;23.316;2023-04-05T13:37:59;94284.38;;;3.38;76.77